sensor_id;sensor_type;location;lat;lon;timestamp;P1;durP1;ratioP1;P2;durP2;ratioP2
53267;SDS011;39156;51.176;6.738;2023-08-12T00:00:49;40.87;;;38.27;;
53267;SDS011;39156;51.176;6.738;2023-08-12T00:03:15;38.93;;;36.30;;
53267;SDS011;39156;51.176;6.738;2023-08-12T00:05:41;39.67;;;37.17;;
53267;SDS011;39156;51.176;6.738;2023-08-12T00:08:08;42.33;;;39.63;;
53267;SDS011;39156;51.176;6.738;2023-08-12T00:10:34;40.05;;;37.42;;
53267;SDS011;39156;51.176;6.738;2023-08-12T00:12:59;39.50;;;36.80;;
53267;SDS011;39156;51.176;6.738;2023-08-12T00:15:25;38.97;;;36.47;;
53267;SDS011;39156;51.176;6.738;2023-08-12T00:17:51;38.90;;;36.27;;
53267;SDS011;39156;51.176;6.738;2023-08-12T00:20:17;40.63;;;38.15;;
53267;SDS011;39156;51.176;6.738;2023-08-12T00:22:43;39.67;;;37.07;;
53267;SDS011;39156;51.176;6.738;2023-08-12T00:25:09;40.45;;;37.85;;
53267;SDS011;39156;51.176;6.738;2023-08-12T00:27:35;42.47;;;39.50;;
53267;SDS011;39156;51.176;6.738;2023-08-12T00:30:02;43.70;;;40.80;;
53267;SDS011;39156;51.176;6.738;2023-08-12T00:32:29;42.80;;;39.88;;
53267;SDS011;39156;51.176;6.738;2023-08-12T00:34:55;42.53;;;39.65;;
53267;SDS011;39156;51.176;6.738;2023-08-12T00:37:21;41.60;;;38.78;;
53267;SDS011;39156;51.176;6.738;2023-08-12T00:39:47;41.58;;;38.95;;
53267;SDS011;39156;51.176;6.738;2023-08-12T00:42:13;41.53;;;38.93;;
53267;SDS011;39156;51.176;6.738;2023-08-12T00:44:38;42.40;;;39.57;;
53267;SDS011;39156;51.176;6.738;2023-08-12T00:47:04;42.60;;;39.73;;
53267;SDS011;39156;51.176;6.738;2023-08-12T00:49:31;40.42;;;37.83;;
53267;SDS011;39156;51.176;6.738;2023-08-12T00:51:58;39.13;;;36.30;;
53267;SDS011;39156;51.176;6.738;2023-08-12T00:54:24;39.95;;;37.33;;
53267;SDS011;39156;51.176;6.738;2023-08-12T00:56:51;39.53;;;37.10;;
53267;SDS011;39156;51.176;6.738;2023-08-12T00:59:19;40.30;;;37.58;;
53267;SDS011;39156;51.176;6.738;2023-08-12T01:01:45;38.90;;;36.40;;
53267;SDS011;39156;51.176;6.738;2023-08-12T01:04:12;40.00;;;37.42;;
53267;SDS011;39156;51.176;6.738;2023-08-12T01:06:38;41.63;;;38.85;;
53267;SDS011;39156;51.176;6.738;2023-08-12T01:09:04;43.33;;;40.33;;
53267;SDS011;39156;51.176;6.738;2023-08-12T01:11:51;41.42;;;38.58;;
53267;SDS011;39156;51.176;6.738;2023-08-12T01:14:28;42.78;;;39.97;;
53267;SDS011;39156;51.176;6.738;2023-08-12T01:17:08;42.40;;;39.38;;
53267;SDS011;39156;51.176;6.738;2023-08-12T01:19:37;45.33;;;42.15;;
53267;SDS011;39156;51.176;6.738;2023-08-12T01:22:06;44.00;;;41.00;;
53267;SDS011;39156;51.176;6.738;2023-08-12T01:24:35;44.85;;;41.95;;
53267;SDS011;39156;51.176;6.738;2023-08-12T01:27:06;44.08;;;40.95;;
53267;SDS011;39156;51.176;6.738;2023-08-12T01:29:33;42.95;;;39.90;;
53267;SDS011;39156;51.176;6.738;2023-08-12T01:32:07;42.78;;;39.83;;
53267;SDS011;39156;51.176;6.738;2023-08-12T01:34:48;41.88;;;38.95;;
53267;SDS011;39156;51.176;6.738;2023-08-12T01:37:29;43.30;;;40.55;;
53267;SDS011;39156;51.176;6.738;2023-08-12T01:39:58;42.33;;;39.42;;
53267;SDS011;39156;51.176;6.738;2023-08-12T01:42:29;42.85;;;39.95;;
53267;SDS011;39156;51.176;6.738;2023-08-12T01:44:59;43.22;;;40.35;;
53267;SDS011;39156;51.176;6.738;2023-08-12T01:47:26;43.35;;;40.45;;
53267;SDS011;39156;51.176;6.738;2023-08-12T01:49:55;41.63;;;38.63;;
53267;SDS011;39156;51.176;6.738;2023-08-12T01:52:21;41.90;;;39.05;;
53267;SDS011;39156;51.176;6.738;2023-08-12T01:54:47;41.07;;;38.53;;
53267;SDS011;39156;51.176;6.738;2023-08-12T01:57:12;41.93;;;39.13;;
53267;SDS011;39156;51.176;6.738;2023-08-12T01:59:38;41.80;;;39.20;;
53267;SDS011;39156;51.176;6.738;2023-08-12T02:02:04;40.73;;;38.13;;
53267;SDS011;39156;51.176;6.738;2023-08-12T02:04:30;41.08;;;38.38;;
53267;SDS011;39156;51.176;6.738;2023-08-12T02:06:56;42.13;;;39.35;;
53267;SDS011;39156;51.176;6.738;2023-08-12T02:09:22;39.85;;;37.28;;
53267;SDS011;39156;51.176;6.738;2023-08-12T02:11:48;40.60;;;37.90;;
53267;SDS011;39156;51.176;6.738;2023-08-12T02:14:14;41.45;;;38.80;;
53267;SDS011;39156;51.176;6.738;2023-08-12T02:16:40;40.90;;;38.00;;
53267;SDS011;39156;51.176;6.738;2023-08-12T02:19:06;42.22;;;39.45;;
53267;SDS011;39156;51.176;6.738;2023-08-12T02:21:32;43.60;;;40.70;;
53267;SDS011;39156;51.176;6.738;2023-08-12T02:23:57;39.63;;;37.13;;
53267;SDS011;39156;51.176;6.738;2023-08-12T02:26:23;39.67;;;37.07;;
53267;SDS011;39156;51.176;6.738;2023-08-12T02:28:49;42.67;;;39.70;;
53267;SDS011;39156;51.176;6.738;2023-08-12T02:31:15;41.80;;;39.00;;
53267;SDS011;39156;51.176;6.738;2023-08-12T02:33:41;41.58;;;38.78;;
53267;SDS011;39156;51.176;6.738;2023-08-12T02:36:07;42.35;;;39.45;;
53267;SDS011;39156;51.176;6.738;2023-08-12T02:38:33;44.07;;;41.17;;
53267;SDS011;39156;51.176;6.738;2023-08-12T02:40:59;42.30;;;39.50;;
53267;SDS011;39156;51.176;6.738;2023-08-12T02:43:24;40.63;;;37.87;;
53267;SDS011;39156;51.176;6.738;2023-08-12T02:45:50;40.58;;;37.97;;
53267;SDS011;39156;51.176;6.738;2023-08-12T02:48:16;42.25;;;39.40;;
53267;SDS011;39156;51.176;6.738;2023-08-12T02:50:42;43.70;;;40.65;;
53267;SDS011;39156;51.176;6.738;2023-08-12T02:53:08;40.88;;;38.30;;
53267;SDS011;39156;51.176;6.738;2023-08-12T02:55:34;42.30;;;39.50;;
53267;SDS011;39156;51.176;6.738;2023-08-12T02:58:00;40.20;;;37.63;;
53267;SDS011;39156;51.176;6.738;2023-08-12T03:00:26;40.88;;;38.13;;
53267;SDS011;39156;51.176;6.738;2023-08-12T03:02:53;40.22;;;37.65;;
53267;SDS011;39156;51.176;6.738;2023-08-12T03:05:19;39.33;;;36.65;;
53267;SDS011;39156;51.176;6.738;2023-08-12T03:07:45;38.63;;;36.33;;
53267;SDS011;39156;51.176;6.738;2023-08-12T03:10:11;39.63;;;37.10;;
53267;SDS011;39156;51.176;6.738;2023-08-12T03:12:37;40.53;;;37.97;;
53267;SDS011;39156;51.176;6.738;2023-08-12T03:15:03;38.43;;;35.93;;
53267;SDS011;39156;51.176;6.738;2023-08-12T03:17:31;39.92;;;37.22;;
53267;SDS011;39156;51.176;6.738;2023-08-12T03:19:57;40.83;;;38.23;;
53267;SDS011;39156;51.176;6.738;2023-08-12T03:22:29;38.88;;;36.38;;
53267;SDS011;39156;51.176;6.738;2023-08-12T03:24:55;40.95;;;38.15;;
53267;SDS011;39156;51.176;6.738;2023-08-12T03:27:20;39.60;;;36.80;;
53267;SDS011;39156;51.176;6.738;2023-08-12T03:29:46;39.53;;;37.10;;
53267;SDS011;39156;51.176;6.738;2023-08-12T03:32:12;41.70;;;39.10;;
53267;SDS011;39156;51.176;6.738;2023-08-12T03:34:38;38.13;;;35.70;;
53267;SDS011;39156;51.176;6.738;2023-08-12T03:37:04;41.63;;;38.73;;
53267;SDS011;39156;51.176;6.738;2023-08-12T03:39:30;42.10;;;39.37;;
53267;SDS011;39156;51.176;6.738;2023-08-12T03:41:56;44.13;;;41.20;;
53267;SDS011;39156;51.176;6.738;2023-08-12T03:44:21;41.90;;;39.03;;
53267;SDS011;39156;51.176;6.738;2023-08-12T03:46:47;43.28;;;40.42;;
53267;SDS011;39156;51.176;6.738;2023-08-12T03:49:13;41.40;;;38.70;;
53267;SDS011;39156;51.176;6.738;2023-08-12T03:51:39;40.50;;;37.97;;
53267;SDS011;39156;51.176;6.738;2023-08-12T03:54:04;40.83;;;38.00;;
53267;SDS011;39156;51.176;6.738;2023-08-12T03:56:30;42.35;;;39.38;;
53267;SDS011;39156;51.176;6.738;2023-08-12T03:58:56;41.47;;;38.67;;
53267;SDS011;39156;51.176;6.738;2023-08-12T04:01:22;42.30;;;39.50;;
53267;SDS011;39156;51.176;6.738;2023-08-12T04:03:48;43.97;;;41.17;;
53267;SDS011;39156;51.176;6.738;2023-08-12T04:08:40;41.20;;;37.80;;
53267;SDS011;39156;51.176;6.738;2023-08-12T04:11:06;42.40;;;39.57;;
53267;SDS011;39156;51.176;6.738;2023-08-12T04:13:31;42.30;;;39.47;;
53267;SDS011;39156;51.176;6.738;2023-08-12T04:15:57;40.73;;;38.13;;
53267;SDS011;39156;51.176;6.738;2023-08-12T04:18:23;41.83;;;38.93;;
53267;SDS011;39156;51.176;6.738;2023-08-12T04:20:49;41.87;;;39.03;;
53267;SDS011;39156;51.176;6.738;2023-08-12T04:23:15;41.40;;;38.65;;
53267;SDS011;39156;51.176;6.738;2023-08-12T04:25:48;41.30;;;38.65;;
53267;SDS011;39156;51.176;6.738;2023-08-12T04:28:14;41.42;;;38.78;;
53267;SDS011;39156;51.176;6.738;2023-08-12T04:33:12;38.92;;;36.42;;
53267;SDS011;39156;51.176;6.738;2023-08-12T04:35:39;38.70;;;35.92;;
53267;SDS011;39156;51.176;6.738;2023-08-12T04:38:06;39.25;;;36.80;;
53267;SDS011;39156;51.176;6.738;2023-08-12T04:40:32;38.27;;;35.83;;
53267;SDS011;39156;51.176;6.738;2023-08-12T04:42:58;36.78;;;34.50;;
53267;SDS011;39156;51.176;6.738;2023-08-12T04:45:24;39.20;;;36.63;;
53267;SDS011;39156;51.176;6.738;2023-08-12T04:47:51;39.05;;;36.55;;
53267;SDS011;39156;51.176;6.738;2023-08-12T04:50:17;37.67;;;35.38;;
53267;SDS011;39156;51.176;6.738;2023-08-12T04:52:42;40.77;;;38.17;;
53267;SDS011;39156;51.176;6.738;2023-08-12T04:55:08;39.53;;;36.85;;
53267;SDS011;39156;51.176;6.738;2023-08-12T04:57:37;38.20;;;35.28;;
53267;SDS011;39156;51.176;6.738;2023-08-12T05:00:04;41.67;;;38.93;;
53267;SDS011;39156;51.176;6.738;2023-08-12T05:02:33;39.78;;;37.28;;
53267;SDS011;39156;51.176;6.738;2023-08-12T05:04:59;38.13;;;35.25;;
53267;SDS011;39156;51.176;6.738;2023-08-12T05:07:25;39.03;;;36.72;;
53267;SDS011;39156;51.176;6.738;2023-08-12T05:09:51;38.28;;;35.85;;
53267;SDS011;39156;51.176;6.738;2023-08-12T05:12:17;38.47;;;35.87;;
53267;SDS011;39156;51.176;6.738;2023-08-12T05:14:43;37.93;;;35.53;;
53267;SDS011;39156;51.176;6.738;2023-08-12T05:17:08;38.17;;;35.70;;
53267;SDS011;39156;51.176;6.738;2023-08-12T05:19:34;38.90;;;36.47;;
53267;SDS011;39156;51.176;6.738;2023-08-12T05:22:00;39.27;;;36.43;;
53267;SDS011;39156;51.176;6.738;2023-08-12T05:24:25;37.70;;;35.20;;
53267;SDS011;39156;51.176;6.738;2023-08-12T05:26:51;40.20;;;37.43;;
53267;SDS011;39156;51.176;6.738;2023-08-12T05:29:17;39.37;;;36.83;;
53267;SDS011;39156;51.176;6.738;2023-08-12T05:31:42;37.40;;;34.90;;
53267;SDS011;39156;51.176;6.738;2023-08-12T05:34:08;37.33;;;34.87;;
53267;SDS011;39156;51.176;6.738;2023-08-12T05:36:35;38.03;;;35.63;;
53267;SDS011;39156;51.176;6.738;2023-08-12T05:39:01;36.78;;;34.47;;
53267;SDS011;39156;51.176;6.738;2023-08-12T05:41:28;36.85;;;34.65;;
53267;SDS011;39156;51.176;6.738;2023-08-12T05:43:53;36.67;;;34.07;;
53267;SDS011;39156;51.176;6.738;2023-08-12T05:46:19;39.73;;;36.73;;
53267;SDS011;39156;51.176;6.738;2023-08-12T05:48:45;37.27;;;35.07;;
53267;SDS011;39156;51.176;6.738;2023-08-12T05:51:10;36.37;;;34.27;;
53267;SDS011;39156;51.176;6.738;2023-08-12T05:53:36;37.10;;;34.57;;
53267;SDS011;39156;51.176;6.738;2023-08-12T05:56:02;34.92;;;32.83;;
53267;SDS011;39156;51.176;6.738;2023-08-12T05:58:28;35.17;;;33.17;;
53267;SDS011;39156;51.176;6.738;2023-08-12T06:00:53;37.37;;;35.07;;
53267;SDS011;39156;51.176;6.738;2023-08-12T06:03:19;39.00;;;36.33;;
53267;SDS011;39156;51.176;6.738;2023-08-12T06:05:45;35.73;;;33.40;;
53267;SDS011;39156;51.176;6.738;2023-08-12T06:08:12;36.33;;;34.03;;
53267;SDS011;39156;51.176;6.738;2023-08-12T06:10:38;34.20;;;32.20;;
53267;SDS011;39156;51.176;6.738;2023-08-12T06:13:05;35.08;;;32.88;;
53267;SDS011;39156;51.176;6.738;2023-08-12T06:15:31;35.65;;;33.40;;
53267;SDS011;39156;51.176;6.738;2023-08-12T06:17:58;36.08;;;33.78;;
53267;SDS011;39156;51.176;6.738;2023-08-12T06:20:25;34.60;;;32.55;;
53267;SDS011;39156;51.176;6.738;2023-08-12T06:22:51;34.58;;;32.58;;
53267;SDS011;39156;51.176;6.738;2023-08-12T06:25:17;35.97;;;33.78;;
53267;SDS011;39156;51.176;6.738;2023-08-12T06:30:10;35.97;;;33.92;;
53267;SDS011;39156;51.176;6.738;2023-08-12T06:32:37;36.95;;;34.58;;
53267;SDS011;39156;51.176;6.738;2023-08-12T06:35:02;35.30;;;33.10;;
53267;SDS011;39156;51.176;6.738;2023-08-12T06:37:29;34.47;;;32.28;;
53267;SDS011;39156;51.176;6.738;2023-08-12T06:39:54;36.67;;;34.53;;
53267;SDS011;39156;51.176;6.738;2023-08-12T06:42:20;35.90;;;33.23;;
53267;SDS011;39156;51.176;6.738;2023-08-12T06:44:53;37.25;;;34.92;;
53267;SDS011;39156;51.176;6.738;2023-08-12T06:47:23;38.03;;;35.67;;
53267;SDS011;39156;51.176;6.738;2023-08-12T06:49:48;35.90;;;33.77;;
53267;SDS011;39156;51.176;6.738;2023-08-12T06:52:14;39.30;;;36.80;;
53267;SDS011;39156;51.176;6.738;2023-08-12T06:54:41;37.88;;;35.65;;
53267;SDS011;39156;51.176;6.738;2023-08-12T06:57:07;36.10;;;33.97;;
53267;SDS011;39156;51.176;6.738;2023-08-12T06:59:32;34.23;;;32.23;;
53267;SDS011;39156;51.176;6.738;2023-08-12T07:01:58;34.30;;;32.30;;
53267;SDS011;39156;51.176;6.738;2023-08-12T07:04:24;34.97;;;32.87;;
53267;SDS011;39156;51.176;6.738;2023-08-12T07:06:50;36.05;;;33.90;;
53267;SDS011;39156;51.176;6.738;2023-08-12T07:09:16;35.00;;;32.90;;
53267;SDS011;39156;51.176;6.738;2023-08-12T07:11:41;34.37;;;32.40;;
53267;SDS011;39156;51.176;6.738;2023-08-12T07:14:07;31.97;;;30.03;;
53267;SDS011;39156;51.176;6.738;2023-08-12T07:16:33;34.60;;;32.60;;
53267;SDS011;39156;51.176;6.738;2023-08-12T07:18:58;34.92;;;32.83;;
53267;SDS011;39156;51.176;6.738;2023-08-12T07:21:24;34.00;;;32.00;;
53267;SDS011;39156;51.176;6.738;2023-08-12T07:23:50;33.83;;;31.70;;
53267;SDS011;39156;51.176;6.738;2023-08-12T07:26:15;35.30;;;33.10;;
53267;SDS011;39156;51.176;6.738;2023-08-12T07:28:41;33.40;;;31.50;;
53267;SDS011;39156;51.176;6.738;2023-08-12T07:31:07;33.03;;;30.93;;
53267;SDS011;39156;51.176;6.738;2023-08-12T07:33:33;34.80;;;32.80;;
53267;SDS011;39156;51.176;6.738;2023-08-12T07:35:59;32.85;;;30.92;;
53267;SDS011;39156;51.176;6.738;2023-08-12T07:38:25;34.03;;;32.08;;
53267;SDS011;39156;51.176;6.738;2023-08-12T07:40:51;33.33;;;31.40;;
53267;SDS011;39156;51.176;6.738;2023-08-12T07:43:17;33.08;;;31.08;;
53267;SDS011;39156;51.176;6.738;2023-08-12T07:45:42;32.43;;;30.63;;
53267;SDS011;39156;51.176;6.738;2023-08-12T07:48:08;35.23;;;33.30;;
53267;SDS011;39156;51.176;6.738;2023-08-12T07:50:34;32.87;;;30.87;;
53267;SDS011;39156;51.176;6.738;2023-08-12T07:53:00;33.92;;;31.92;;
53267;SDS011;39156;51.176;6.738;2023-08-12T07:55:26;32.42;;;30.45;;
53267;SDS011;39156;51.176;6.738;2023-08-12T07:57:52;34.65;;;32.75;;
53267;SDS011;39156;51.176;6.738;2023-08-12T08:00:18;32.80;;;31.00;;
53267;SDS011;39156;51.176;6.738;2023-08-12T08:02:44;32.03;;;30.23;;
53267;SDS011;39156;51.176;6.738;2023-08-12T08:05:10;32.20;;;30.40;;
53267;SDS011;39156;51.176;6.738;2023-08-12T08:07:36;33.20;;;31.27;;
53267;SDS011;39156;51.176;6.738;2023-08-12T08:10:02;35.17;;;33.23;;
53267;SDS011;39156;51.176;6.738;2023-08-12T08:12:28;31.80;;;30.00;;
53267;SDS011;39156;51.176;6.738;2023-08-12T08:14:53;31.73;;;29.83;;
53267;SDS011;39156;51.176;6.738;2023-08-12T08:17:19;34.10;;;32.20;;
53267;SDS011;39156;51.176;6.738;2023-08-12T08:19:45;32.80;;;30.90;;
53267;SDS011;39156;51.176;6.738;2023-08-12T08:22:10;32.57;;;30.87;;
53267;SDS011;39156;51.176;6.738;2023-08-12T08:24:36;32.53;;;30.83;;
53267;SDS011;39156;51.176;6.738;2023-08-12T08:29:29;33.45;;;31.65;;
53267;SDS011;39156;51.176;6.738;2023-08-12T08:31:55;31.25;;;29.55;;
53267;SDS011;39156;51.176;6.738;2023-08-12T08:34:21;31.00;;;29.30;;
53267;SDS011;39156;51.176;6.738;2023-08-12T08:36:46;32.28;;;30.58;;
53267;SDS011;39156;51.176;6.738;2023-08-12T08:39:12;30.55;;;28.65;;
53267;SDS011;39156;51.176;6.738;2023-08-12T08:41:38;30.92;;;29.33;;
53267;SDS011;39156;51.176;6.738;2023-08-12T08:44:06;32.53;;;30.73;;
53267;SDS011;39156;51.176;6.738;2023-08-12T08:46:33;31.15;;;29.40;;
53267;SDS011;39156;51.176;6.738;2023-08-12T08:49:00;32.75;;;30.80;;
53267;SDS011;39156;51.176;6.738;2023-08-12T08:53:55;31.88;;;30.08;;
53267;SDS011;39156;51.176;6.738;2023-08-12T08:56:21;31.92;;;30.13;;
53267;SDS011;39156;51.176;6.738;2023-08-12T08:58:48;31.60;;;29.90;;
53267;SDS011;39156;51.176;6.738;2023-08-12T09:01:14;30.67;;;29.08;;
53267;SDS011;39156;51.176;6.738;2023-08-12T09:03:43;33.22;;;30.77;;
53267;SDS011;39156;51.176;6.738;2023-08-12T09:06:08;32.03;;;30.33;;
53267;SDS011;39156;51.176;6.738;2023-08-12T09:08:34;32.42;;;30.52;;
53267;SDS011;39156;51.176;6.738;2023-08-12T09:11:02;31.98;;;30.17;;
53267;SDS011;39156;51.176;6.738;2023-08-12T09:13:28;30.67;;;29.08;;
53267;SDS011;39156;51.176;6.738;2023-08-12T09:15:54;29.80;;;28.20;;
53267;SDS011;39156;51.176;6.738;2023-08-12T09:18:20;31.13;;;29.45;;
53267;SDS011;39156;51.176;6.738;2023-08-12T09:20:50;30.02;;;28.33;;
53267;SDS011;39156;51.176;6.738;2023-08-12T09:23:16;29.83;;;28.27;;
53267;SDS011;39156;51.176;6.738;2023-08-12T09:25:43;32.30;;;30.50;;
53267;SDS011;39156;51.176;6.738;2023-08-12T09:28:10;32.17;;;30.42;;
53267;SDS011;39156;51.176;6.738;2023-08-12T09:30:37;30.35;;;28.75;;
53267;SDS011;39156;51.176;6.738;2023-08-12T09:33:04;30.27;;;28.67;;
53267;SDS011;39156;51.176;6.738;2023-08-12T09:35:36;31.17;;;29.58;;
53267;SDS011;39156;51.176;6.738;2023-08-12T09:38:05;28.83;;;27.33;;
53267;SDS011;39156;51.176;6.738;2023-08-12T09:40:35;29.05;;;27.45;;
53267;SDS011;39156;51.176;6.738;2023-08-12T09:43:02;30.85;;;29.08;;
53267;SDS011;39156;51.176;6.738;2023-08-12T09:45:30;29.35;;;27.85;;
53267;SDS011;39156;51.176;6.738;2023-08-12T09:47:56;30.98;;;29.38;;
53267;SDS011;39156;51.176;6.738;2023-08-12T09:50:23;30.75;;;29.17;;
53267;SDS011;39156;51.176;6.738;2023-08-12T09:52:50;29.98;;;28.42;;
53267;SDS011;39156;51.176;6.738;2023-08-12T09:55:18;29.35;;;27.85;;
53267;SDS011;39156;51.176;6.738;2023-08-12T09:57:47;29.20;;;27.70;;
53267;SDS011;39156;51.176;6.738;2023-08-12T10:00:18;31.25;;;29.55;;
53267;SDS011;39156;51.176;6.738;2023-08-12T10:02:46;29.20;;;27.60;;
53267;SDS011;39156;51.176;6.738;2023-08-12T10:05:32;29.20;;;27.58;;
53267;SDS011;39156;51.176;6.738;2023-08-12T10:07:59;29.83;;;28.02;;
53267;SDS011;39156;51.176;6.738;2023-08-12T10:10:28;29.48;;;27.98;;
53267;SDS011;39156;51.176;6.738;2023-08-12T10:12:57;31.20;;;29.60;;
53267;SDS011;39156;51.176;6.738;2023-08-12T10:17:51;30.15;;;28.65;;
53267;SDS011;39156;51.176;6.738;2023-08-12T10:20:20;30.30;;;28.70;;
53267;SDS011;39156;51.176;6.738;2023-08-12T10:22:48;29.20;;;27.70;;
53267;SDS011;39156;51.176;6.738;2023-08-12T10:27:43;28.95;;;27.35;;
53267;SDS011;39156;51.176;6.738;2023-08-12T10:30:09;30.27;;;28.60;;
53267;SDS011;39156;51.176;6.738;2023-08-12T10:32:35;30.23;;;28.52;;
53267;SDS011;39156;51.176;6.738;2023-08-12T10:35:02;28.45;;;26.98;;
53267;SDS011;39156;51.176;6.738;2023-08-12T10:39:58;29.02;;;27.23;;
53267;SDS011;39156;51.176;6.738;2023-08-12T10:42:40;30.60;;;29.00;;
53267;SDS011;39156;51.176;6.738;2023-08-12T10:45:11;30.35;;;28.73;;
53267;SDS011;39156;51.176;6.738;2023-08-12T10:47:41;30.10;;;28.60;;
53267;SDS011;39156;51.176;6.738;2023-08-12T10:50:21;32.17;;;30.35;;
53267;SDS011;39156;51.176;6.738;2023-08-12T10:52:53;30.10;;;28.48;;
53267;SDS011;39156;51.176;6.738;2023-08-12T10:55:20;30.50;;;28.90;;
53267;SDS011;39156;51.176;6.738;2023-08-12T10:57:51;29.83;;;28.33;;
53267;SDS011;39156;51.176;6.738;2023-08-12T11:00:19;30.48;;;28.88;;
53267;SDS011;39156;51.176;6.738;2023-08-12T11:02:49;30.85;;;29.25;;
53267;SDS011;39156;51.176;6.738;2023-08-12T11:05:21;30.08;;;28.55;;
53267;SDS011;39156;51.176;6.738;2023-08-12T11:07:48;31.05;;;29.45;;
53267;SDS011;39156;51.176;6.738;2023-08-12T11:10:22;29.67;;;28.08;;
53267;SDS011;39156;51.176;6.738;2023-08-12T11:15:17;31.83;;;30.23;;
53267;SDS011;39156;51.176;6.738;2023-08-12T11:17:47;29.85;;;28.35;;
53267;SDS011;39156;51.176;6.738;2023-08-12T11:20:13;31.25;;;29.65;;
53267;SDS011;39156;51.176;6.738;2023-08-12T11:22:40;30.70;;;29.00;;
53267;SDS011;39156;51.176;6.738;2023-08-12T11:25:09;29.48;;;27.83;;
53267;SDS011;39156;51.176;6.738;2023-08-12T11:27:43;29.85;;;28.35;;
53267;SDS011;39156;51.176;6.738;2023-08-12T11:30:11;33.75;;;30.92;;
53267;SDS011;39156;51.176;6.738;2023-08-12T11:32:47;32.20;;;29.98;;
53267;SDS011;39156;51.176;6.738;2023-08-12T11:35:15;30.15;;;28.45;;
53267;SDS011;39156;51.176;6.738;2023-08-12T11:37:50;31.73;;;29.80;;
53267;SDS011;39156;51.176;6.738;2023-08-12T11:40:18;33.67;;;31.35;;
53267;SDS011;39156;51.176;6.738;2023-08-12T11:42:48;29.60;;;27.90;;
53267;SDS011;39156;51.176;6.738;2023-08-12T11:45:16;31.42;;;29.58;;
53267;SDS011;39156;51.176;6.738;2023-08-12T11:47:45;29.00;;;27.25;;
53267;SDS011;39156;51.176;6.738;2023-08-12T11:50:17;29.25;;;27.65;;
53267;SDS011;39156;51.176;6.738;2023-08-12T11:52:45;28.75;;;27.25;;
53267;SDS011;39156;51.176;6.738;2023-08-12T11:55:11;27.88;;;26.27;;
53267;SDS011;39156;51.176;6.738;2023-08-12T11:57:41;28.13;;;26.73;;
53267;SDS011;39156;51.176;6.738;2023-08-12T12:00:08;27.75;;;26.35;;
53267;SDS011;39156;51.176;6.738;2023-08-12T12:02:47;28.48;;;26.98;;
53267;SDS011;39156;51.176;6.738;2023-08-12T12:05:15;28.08;;;26.58;;
53267;SDS011;39156;51.176;6.738;2023-08-12T12:07:42;28.02;;;26.63;;
53267;SDS011;39156;51.176;6.738;2023-08-12T12:10:12;27.88;;;26.48;;
53267;SDS011;39156;51.176;6.738;2023-08-12T12:12:59;28.48;;;26.98;;
53267;SDS011;39156;51.176;6.738;2023-08-12T12:15:25;29.23;;;27.73;;
53267;SDS011;39156;51.176;6.738;2023-08-12T12:17:51;28.63;;;27.17;;
53267;SDS011;39156;51.176;6.738;2023-08-12T12:20:18;28.50;;;27.10;;
53267;SDS011;39156;51.176;6.738;2023-08-12T12:22:45;29.02;;;27.52;;
53267;SDS011;39156;51.176;6.738;2023-08-12T12:25:13;28.33;;;26.83;;
53267;SDS011;39156;51.176;6.738;2023-08-12T12:27:41;28.23;;;26.73;;
53267;SDS011;39156;51.176;6.738;2023-08-12T12:30:09;28.48;;;27.08;;
53267;SDS011;39156;51.176;6.738;2023-08-12T12:32:37;30.15;;;28.25;;
53267;SDS011;39156;51.176;6.738;2023-08-12T12:35:03;29.27;;;27.75;;
53267;SDS011;39156;51.176;6.738;2023-08-12T12:37:32;29.67;;;28.00;;
53267;SDS011;39156;51.176;6.738;2023-08-12T12:39:58;31.13;;;29.10;;
53267;SDS011;39156;51.176;6.738;2023-08-12T12:42:23;30.20;;;28.70;;
53267;SDS011;39156;51.176;6.738;2023-08-12T12:44:49;30.10;;;28.60;;
53267;SDS011;39156;51.176;6.738;2023-08-12T12:47:15;30.67;;;29.08;;
53267;SDS011;39156;51.176;6.738;2023-08-12T12:49:41;30.27;;;28.70;;
53267;SDS011;39156;51.176;6.738;2023-08-12T12:52:08;31.17;;;29.30;;
53267;SDS011;39156;51.176;6.738;2023-08-12T12:54:33;30.48;;;28.90;;
53267;SDS011;39156;51.176;6.738;2023-08-12T12:56:59;30.75;;;29.13;;
53267;SDS011;39156;51.176;6.738;2023-08-12T12:59:26;31.77;;;30.00;;
53267;SDS011;39156;51.176;6.738;2023-08-12T13:01:52;31.48;;;29.77;;
53267;SDS011;39156;51.176;6.738;2023-08-12T13:04:17;30.55;;;28.98;;
53267;SDS011;39156;51.176;6.738;2023-08-12T13:06:44;32.35;;;30.40;;
53267;SDS011;39156;51.176;6.738;2023-08-12T13:09:09;30.63;;;29.02;;
53267;SDS011;39156;51.176;6.738;2023-08-12T13:11:35;31.02;;;29.17;;
53267;SDS011;39156;51.176;6.738;2023-08-12T13:14:01;30.55;;;28.95;;
53267;SDS011;39156;51.176;6.738;2023-08-12T13:16:28;30.63;;;29.00;;
53267;SDS011;39156;51.176;6.738;2023-08-12T13:21:23;30.50;;;28.95;;
53267;SDS011;39156;51.176;6.738;2023-08-12T13:23:50;31.80;;;30.10;;
53267;SDS011;39156;51.176;6.738;2023-08-12T13:26:15;31.60;;;29.90;;
53267;SDS011;39156;51.176;6.738;2023-08-12T13:28:41;31.40;;;29.80;;
53267;SDS011;39156;51.176;6.738;2023-08-12T13:31:08;31.65;;;29.98;;
53267;SDS011;39156;51.176;6.738;2023-08-12T13:33:34;29.75;;;28.23;;
53267;SDS011;39156;51.176;6.738;2023-08-12T13:36:00;30.98;;;29.40;;
53267;SDS011;39156;51.176;6.738;2023-08-12T13:38:26;31.33;;;29.67;;
53267;SDS011;39156;51.176;6.738;2023-08-12T13:40:52;30.80;;;29.10;;
53267;SDS011;39156;51.176;6.738;2023-08-12T13:43:17;30.08;;;28.50;;
53267;SDS011;39156;51.176;6.738;2023-08-12T13:45:43;30.40;;;28.90;;
53267;SDS011;39156;51.176;6.738;2023-08-12T13:48:09;32.15;;;30.40;;
53267;SDS011;39156;51.176;6.738;2023-08-12T13:50:34;29.75;;;28.25;;
53267;SDS011;39156;51.176;6.738;2023-08-12T13:53:00;30.55;;;28.98;;
53267;SDS011;39156;51.176;6.738;2023-08-12T13:55:26;30.00;;;28.50;;
53267;SDS011;39156;51.176;6.738;2023-08-12T13:57:52;29.42;;;27.92;;
53267;SDS011;39156;51.176;6.738;2023-08-12T14:00:18;30.10;;;28.40;;
53267;SDS011;39156;51.176;6.738;2023-08-12T14:02:44;31.70;;;30.10;;
53267;SDS011;39156;51.176;6.738;2023-08-12T14:05:10;29.85;;;28.35;;
53267;SDS011;39156;51.176;6.738;2023-08-12T14:07:36;29.52;;;28.02;;
53267;SDS011;39156;51.176;6.738;2023-08-12T14:10:02;29.92;;;28.40;;
53267;SDS011;39156;51.176;6.738;2023-08-12T14:12:29;29.38;;;27.88;;
53267;SDS011;39156;51.176;6.738;2023-08-12T14:14:55;29.75;;;28.20;;
53267;SDS011;39156;51.176;6.738;2023-08-12T14:17:21;29.13;;;27.63;;
53267;SDS011;39156;51.176;6.738;2023-08-12T14:19:48;30.05;;;28.45;;
53267;SDS011;39156;51.176;6.738;2023-08-12T14:22:16;30.08;;;28.48;;
53267;SDS011;39156;51.176;6.738;2023-08-12T14:27:09;29.55;;;27.90;;
53267;SDS011;39156;51.176;6.738;2023-08-12T14:29:35;29.67;;;28.17;;
53267;SDS011;39156;51.176;6.738;2023-08-12T14:32:01;29.50;;;28.00;;
53267;SDS011;39156;51.176;6.738;2023-08-12T14:34:27;30.65;;;28.95;;
53267;SDS011;39156;51.176;6.738;2023-08-12T14:36:52;29.13;;;27.63;;
53267;SDS011;39156;51.176;6.738;2023-08-12T14:39:18;28.88;;;27.33;;
53267;SDS011;39156;51.176;6.738;2023-08-12T14:41:44;31.83;;;30.20;;
53267;SDS011;39156;51.176;6.738;2023-08-12T14:44:09;29.83;;;28.30;;
53267;SDS011;39156;51.176;6.738;2023-08-12T14:46:35;29.58;;;27.98;;